Time;durP1;ratioP1;P1;durP2;ratioP2;P2;SDS_P1;SDS_P2;PMS_P1;PMS_P2;Temp;Humidity;BMP_temperature;BMP_pressure;BME280_temperature;BME280_humidity;BME280_pressure;Samples;Min_cycle;Max_cycle;Signal;HPM_P1;HPM_P2
2021/06/11 00:00:21;;;;;;;2.72;2.53;;;;;;;;;;5070144;28;20154;-71
2021/06/11 00:02:47;;;;;;;3.28;3.08;;;;;;;;;;5069890;28;20060;-71
2021/06/11 00:05:14;;;;;;;3.55;2.83;;;;;;;;;;5069008;28;20101;-71
2021/06/11 00:07:40;;;;;;;2.60;2.40;;;;;;;;;;5070077;28;20048;-71
2021/06/11 00:10:07;;;;;;;3.08;2.83;;;;;;;;;;5069558;28;20407;-71
2021/06/11 00:12:34;;;;;;;2.63;2.42;;;;;;;;;;5068172;28;20069;-71
2021/06/11 00:15:00;;;;;;;2.97;2.78;;;;;;;;;;5068875;28;20040;-71
2021/06/11 00:17:26;;;;;;;3.72;3.47;;;;;;;;;;5069883;28;20575;-71
2021/06/11 00:19:52;;;;;;;2.70;2.50;;;;;;;;;;5069660;28;20495;-71
2021/06/11 00:22:18;;;;;;;2.60;2.50;;;;;;;;;;5069862;28;20143;-71
2021/06/11 00:24:44;;;;;;;2.95;2.25;;;;;;;;;;5069662;28;20072;-71
2021/06/11 00:27:11;;;;;;;2.53;2.33;;;;;;;;;;5071437;28;20422;-71
2021/06/11 00:29:37;;;;;;;2.72;2.53;;;;;;;;;;5074014;28;20032;-71
2021/06/11 00:32:03;;;;;;;2.33;2.22;;;;;;;;;;5072703;28;20502;-71
2021/06/11 00:34:29;;;;;;;2.83;2.63;;;;;;;;;;5073514;28;20541;-71
2021/06/11 00:36:55;;;;;;;3.30;2.97;;;;;;;;;;5073488;28;20056;-71
2021/06/11 00:39:21;;;;;;;3.03;2.72;;;;;;;;;;5074014;28;20072;-71
2021/06/11 00:41:47;;;;;;;2.65;2.45;;;;;;;;;;5073837;28;20040;-71
2021/06/11 00:44:13;;;;;;;3.10;2.83;;;;;;;;;;5072677;28;20075;-71
2021/06/11 00:46:39;;;;;;;2.55;2.35;;;;;;;;;;5073629;28;20048;-71
2021/06/11 00:49:05;;;;;;;2.83;2.63;;;;;;;;;;5072929;28;20049;-71
2021/06/11 00:51:32;;;;;;;2.28;2.08;;;;;;;;;;5073620;28;20478;-71
2021/06/11 00:53:58;;;;;;;2.42;2.22;;;;;;;;;;5072243;28;20052;-71
2021/06/11 00:56:24;;;;;;;2.22;2.13;;;;;;;;;;5055227;28;20052;-71
2021/06/11 00:58:50;;;;;;;2.95;2.75;;;;;;;;;;5073739;28;20051;-71
2021/06/11 01:01:16;;;;;;;3.08;2.88;;;;;;;;;;5072819;28;20509;-71
2021/06/11 01:03:42;;;;;;;3.20;2.90;;;;;;;;;;5072923;28;20131;-71
2021/06/11 01:06:09;;;;;;;3.88;2.20;;;;;;;;;;5072631;28;20056;-71
2021/06/11 01:08:35;;;;;;;2.72;2.53;;;;;;;;;;5073202;28;20047;-71
2021/06/11 01:11:02;;;;;;;2.58;2.38;;;;;;;;;;5072309;28;20044;-71
2021/06/11 01:13:28;;;;;;;2.85;2.20;;;;;;;;;;5072852;28;20127;-71
2021/06/11 01:15:54;;;;;;;2.25;2.08;;;;;;;;;;5072215;28;20044;-71
2021/06/11 01:18:21;;;;;;;3.00;2.80;;;;;;;;;;5072831;28;20083;-71
2021/06/11 01:20:48;;;;;;;2.72;2.53;;;;;;;;;;5073004;28;20060;-71
2021/06/11 01:23:33;;;;;;;2.60;2.40;;;;;;;;;;5072071;28;20135;-71
2021/06/11 01:26:04;;;;;;;2.53;2.33;;;;;;;;;;5072210;28;20048;-71
2021/06/11 01:28:31;;;;;;;2.58;2.38;;;;;;;;;;5053379;28;20598;-71
2021/06/11 01:30:57;;;;;;;2.40;2.20;;;;;;;;;;5071793;28;20040;-71
2021/06/11 01:33:26;;;;;;;2.50;2.30;;;;;;;;;;5072428;28;20061;-71
2021/06/11 01:35:59;;;;;;;2.40;2.20;;;;;;;;;;5071899;28;20068;-71
2021/06/11 01:38:27;;;;;;;3.30;3.00;;;;;;;;;;5072367;28;20045;-71
2021/06/11 01:40:54;;;;;;;3.40;2.63;;;;;;;;;;5072175;28;20526;-71
2021/06/11 01:43:23;;;;;;;2.33;2.20;;;;;;;;;;5072052;28;20045;-71
2021/06/11 01:45:49;;;;;;;2.42;2.22;;;;;;;;;;5072231;28;20055;-71
2021/06/11 01:48:18;;;;;;;2.55;2.35;;;;;;;;;;5072091;28;20102;-71
2021/06/11 01:50:45;;;;;;;2.67;2.47;;;;;;;;;;5072576;28;20507;-71
2021/06/11 01:53:12;;;;;;;2.58;2.47;;;;;;;;;;5071196;28;20056;-71
2021/06/11 01:55:39;;;;;;;2.83;2.63;;;;;;;;;;5071845;28;20036;-71
2021/06/11 01:58:05;;;;;;;4.00;2.90;;;;;;;;;;5071569;28;20597;-71
2021/06/11 02:00:31;;;;;;;2.70;2.50;;;;;;;;;;5072136;28;20056;-71
2021/06/11 02:02:58;;;;;;;3.17;2.88;;;;;;;;;;5071216;28;20044;-71
2021/06/11 02:05:24;;;;;;;3.03;2.45;;;;;;;;;;5072031;28;20529;-71
2021/06/11 02:07:51;;;;;;;2.25;1.90;;;;;;;;;;5071878;28;20048;-71
2021/06/11 02:10:19;;;;;;;2.63;2.42;;;;;;;;;;5071953;28;20505;-71
2021/06/11 02:12:45;;;;;;;2.33;2.10;;;;;;;;;;5071725;28;20040;-71
2021/06/11 02:15:13;;;;;;;2.25;2.10;;;;;;;;;;5071288;28;20057;-71
2021/06/11 02:17:41;;;;;;;2.88;2.58;;;;;;;;;;5071799;28;20048;-71
2021/06/11 02:20:10;;;;;;;2.97;2.08;;;;;;;;;;5071204;28;20536;-71
2021/06/11 02:22:37;;;;;;;2.55;2.35;;;;;;;;;;5069815;28;20055;-71
2021/06/11 02:25:04;;;;;;;3.08;2.47;;;;;;;;;;5070807;28;20047;-71
2021/06/11 02:27:30;;;;;;;1.85;1.75;;;;;;;;;;5071388;28;20102;-71
2021/06/11 02:29:57;;;;;;;3.25;2.45;;;;;;;;;;5071161;28;20414;-71
2021/06/11 02:32:23;;;;;;;7.40;3.15;;;;;;;;;;5070969;28;20048;-71
2021/06/11 02:34:49;;;;;;;3.78;2.28;;;;;;;;;;5071168;28;20072;-71
2021/06/11 02:37:15;;;;;;;5.53;2.97;;;;;;;;;;5071068;28;20060;-71
2021/06/11 02:39:42;;;;;;;2.95;2.75;;;;;;;;;;5071804;28;20112;-71
2021/06/11 02:42:09;;;;;;;2.67;2.58;;;;;;;;;;5070824;28;20044;-71
2021/06/11 02:44:36;;;;;;;2.15;2.03;;;;;;;;;;5071396;28;20048;-71
2021/06/11 02:47:09;;;;;;;3.40;3.10;;;;;;;;;;5070769;28;20041;-71
2021/06/11 02:49:38;;;;;;;2.47;2.28;;;;;;;;;;5070877;28;20052;-71
2021/06/11 02:52:07;;;;;;;2.47;2.28;;;;;;;;;;5070546;28;20045;-71
2021/06/11 02:54:36;;;;;;;2.47;2.28;;;;;;;;;;5071135;28;20056;-71
2021/06/11 02:57:21;;;;;;;2.78;2.58;;;;;;;;;;5070181;28;20072;-71
2021/06/11 02:59:48;;;;;;;2.60;2.40;;;;;;;;;;5071173;28;20052;-71
2021/06/11 03:02:16;;;;;;;5.03;2.58;;;;;;;;;;5070068;28;20056;-71
2021/06/11 03:04:44;;;;;;;2.40;2.20;;;;;;;;;;5070853;28;20048;-71
2021/06/11 03:07:11;;;;;;;2.05;1.85;;;;;;;;;;5070029;28;20064;-71
2021/06/11 03:09:39;;;;;;;2.47;2.28;;;;;;;;;;5070901;28;20059;-71
2021/06/11 03:12:06;;;;;;;3.13;2.42;;;;;;;;;;5070080;28;20110;-71
2021/06/11 03:14:32;;;;;;;2.33;2.20;;;;;;;;;;5070678;28;20080;-71
2021/06/11 03:17:00;;;;;;;2.65;2.45;;;;;;;;;;5069573;28;20048;-71
2021/06/11 03:19:30;;;;;;;2.28;2.13;;;;;;;;;;5070660;28;20041;-71
2021/06/11 03:22:02;;;;;;;3.20;3.00;;;;;;;;;;5070104;28;20052;-71
2021/06/11 03:24:30;;;;;;;2.42;2.08;;;;;;;;;;5070570;28;20043;-71
2021/06/11 03:27:02;;;;;;;1.80;1.70;;;;;;;;;;5069648;28;20579;-71
2021/06/11 03:29:43;;;;;;;2.90;1.92;;;;;;;;;;5070646;28;20044;-71
2021/06/11 03:32:11;;;;;;;2.17;2.00;;;;;;;;;;5069264;28;20087;-71
2021/06/11 03:34:40;;;;;;;4.05;2.28;;;;;;;;;;5051947;28;20465;-71
2021/06/11 03:37:10;;;;;;;2.65;2.38;;;;;;;;;;5069380;28;20075;-71
2021/06/11 03:39:40;;;;;;;3.17;2.78;;;;;;;;;;5070533;28;20048;-71
2021/06/11 03:42:09;;;;;;;2.50;2.30;;;;;;;;;;5069762;28;20527;-71
2021/06/11 03:44:36;;;;;;;2.53;2.33;;;;;;;;;;5070328;28;20492;-71
2021/06/11 03:47:03;;;;;;;2.28;2.05;;;;;;;;;;5069694;28;20071;-71
2021/06/11 03:49:30;;;;;;;2.10;2.00;;;;;;;;;;5070499;28;20472;-71
2021/06/11 03:51:57;;;;;;;2.60;2.40;;;;;;;;;;5069887;28;20414;-71
2021/06/11 03:54:24;;;;;;;2.60;2.40;;;;;;;;;;5069931;28;20127;-71
2021/06/11 03:56:51;;;;;;;2.70;2.50;;;;;;;;;;5069892;28;20128;-71
2021/06/11 03:59:18;;;;;;;3.40;2.35;;;;;;;;;;5070108;28;20037;-72
2021/06/11 04:01:46;;;;;;;2.95;2.55;;;;;;;;;;5069087;28;20063;-71
2021/06/11 04:04:13;;;;;;;2.80;2.38;;;;;;;;;;5069490;28;20057;-71
2021/06/11 04:06:41;;;;;;;2.75;1.90;;;;;;;;;;5069934;28;20052;-71
2021/06/11 04:09:09;;;;;;;1.75;1.65;;;;;;;;;;5069402;28;20041;-71
2021/06/11 04:11:38;;;;;;;4.45;2.92;;;;;;;;;;5070179;28;20584;-71
2021/06/11 04:14:04;;;;;;;2.75;2.55;;;;;;;;;;5067558;28;20463;-71
2021/06/11 04:16:39;;;;;;;1.95;1.85;;;;;;;;;;5069748;28;20568;-71
2021/06/11 04:19:06;;;;;;;2.35;2.13;;;;;;;;;;5067396;28;20045;-71
2021/06/11 04:21:36;;;;;;;3.63;2.30;;;;;;;;;;5070096;28;20059;-71
2021/06/11 04:24:04;;;;;;;2.15;1.98;;;;;;;;;;5069250;28;20071;-71
2021/06/11 04:26:33;;;;;;;3.00;2.47;;;;;;;;;;5069626;28;20049;-71
2021/06/11 04:29:00;;;;;;;2.13;1.95;;;;;;;;;;5069358;28;20102;-71
2021/06/11 04:31:29;;;;;;;2.47;2.28;;;;;;;;;;5069682;28;20060;-71
2021/06/11 04:33:58;;;;;;;2.70;2.47;;;;;;;;;;5068832;28;20059;-71
2021/06/11 04:36:24;;;;;;;3.00;2.50;;;;;;;;;;5069535;28;20515;-71
2021/06/11 04:38:55;;;;;;;1.90;1.80;;;;;;;;;;5069557;28;20115;-71
2021/06/11 04:41:22;;;;;;;2.30;2.20;;;;;;;;;;5067654;28;20569;-71
2021/06/11 04:43:48;;;;;;;2.17;1.98;;;;;;;;;;5069337;28;20055;-71
2021/06/11 04:46:14;;;;;;;2.33;1.90;;;;;;;;;;5068962;28;20059;-71
2021/06/11 04:48:40;;;;;;;2.47;2.28;;;;;;;;;;5069673;28;20048;-71
2021/06/11 04:51:06;;;;;;;2.58;2.38;;;;;;;;;;5069104;28;20036;-71
2021/06/11 04:53:33;;;;;;;1.88;1.77;;;;;;;;;;5069033;28;20170;-71
2021/06/11 04:55:59;;;;;;;1.83;1.73;;;;;;;;;;5068574;28;20050;-71
2021/06/11 04:58:27;;;;;;;2.03;1.83;;;;;;;;;;5069712;28;20043;-71
2021/06/11 05:00:53;;;;;;;2.40;2.25;;;;;;;;;;5067027;28;20057;-72
2021/06/11 05:03:19;;;;;;;2.67;2.47;;;;;;;;;;5069400;28;20502;-71
2021/06/11 05:05:45;;;;;;;3.30;2.20;;;;;;;;;;5069385;28;20053;-71
2021/06/11 05:08:11;;;;;;;2.95;2.63;;;;;;;;;;5068843;28;20060;-71
2021/06/11 05:10:39;;;;;;;2.45;2.05;;;;;;;;;;5069790;28;20053;-71
2021/06/11 05:13:05;;;;;;;2.20;2.00;;;;;;;;;;5070814;28;20106;-71
2021/06/11 05:15:32;;;;;;;2.25;2.05;;;;;;;;;;5073021;28;20044;-71
2021/06/11 05:18:05;;;;;;;2.25;1.77;;;;;;;;;;5072640;28;20060;-72
2021/06/11 05:20:31;;;;;;;2.60;2.40;;;;;;;;;;5073224;28;20051;-72
2021/06/11 05:22:57;;;;;;;2.70;2.50;;;;;;;;;;5072142;28;20529;-72
2021/06/11 05:25:24;;;;;;;3.10;1.80;;;;;;;;;;5073002;28;20395;-71
2021/06/11 05:27:50;;;;;;;3.38;2.33;;;;;;;;;;5072144;28;20083;-71
2021/06/11 05:30:17;;;;;;;2.78;2.58;;;;;;;;;;5072527;28;20060;-71
2021/06/11 05:32:44;;;;;;;2.30;2.10;;;;;;;;;;5072555;28;20067;-72
2021/06/11 05:35:10;;;;;;;3.70;2.60;;;;;;;;;;5072062;28;20136;-71
2021/06/11 05:37:36;;;;;;;7.72;1.75;;;;;;;;;;5072543;28;20067;-71
2021/06/11 05:40:03;;;;;;;2.35;2.03;;;;;;;;;;5072109;28;20090;-71
2021/06/11 05:42:29;;;;;;;2.10;2.00;;;;;;;;;;5072440;28;20044;-71
2021/06/11 05:44:55;;;;;;;3.05;2.05;;;;;;;;;;5071783;28;20053;-71
2021/06/11 05:47:21;;;;;;;2.10;1.98;;;;;;;;;;5072027;28;20044;-72
2021/06/11 05:49:47;;;;;;;3.58;2.35;;;;;;;;;;5072615;28;20491;-71
2021/06/11 05:52:14;;;;;;;3.90;3.13;;;;;;;;;;5071407;28;20045;-72
2021/06/11 05:54:40;;;;;;;4.47;2.53;;;;;;;;;;5071962;28;20052;-71
2021/06/11 05:57:06;;;;;;;2.40;1.70;;;;;;;;;;5070583;28;20139;-70
2021/06/11 05:59:32;;;;;;;1.65;1.55;;;;;;;;;;5060864;28;20053;-71
2021/06/11 06:01:58;;;;;;;4.20;2.40;;;;;;;;;;5050986;28;20061;-71
2021/06/11 06:04:24;;;;;;;2.17;1.98;;;;;;;;;;5068696;28;20048;-71
2021/06/11 06:06:50;;;;;;;3.95;2.53;;;;;;;;;;5068263;28;20086;-71
2021/06/11 06:09:16;;;;;;;5.50;2.33;;;;;;;;;;5071053;28;20498;-71
2021/06/11 06:11:43;;;;;;;2.50;2.30;;;;;;;;;;5070631;28;20645;-71
2021/06/11 06:14:09;;;;;;;3.60;2.67;;;;;;;;;;5059595;28;20384;-71
2021/06/11 06:16:36;;;;;;;2.22;2.03;;;;;;;;;;5070203;28;20044;-71
2021/06/11 06:19:03;;;;;;;3.70;2.15;;;;;;;;;;5049556;28;20041;-72
2021/06/11 06:21:31;;;;;;;4.32;2.95;;;;;;;;;;5059718;28;20040;-71
2021/06/11 06:23:57;;;;;;;4.88;2.58;;;;;;;;;;5068169;28;20046;-71
2021/06/11 06:26:23;;;;;;;3.95;2.88;;;;;;;;;;5067256;28;20047;-71
2021/06/11 06:28:49;;;;;;;2.70;2.20;;;;;;;;;;5069096;28;20048;-71
2021/06/11 06:31:15;;;;;;;3.33;3.03;;;;;;;;;;5068711;28;20502;-71
2021/06/11 06:33:41;;;;;;;5.03;2.95;;;;;;;;;;5068441;28;20037;-71
2021/06/11 06:36:09;;;;;;;5.85;3.13;;;;;;;;;;5065928;28;20076;-71
2021/06/11 06:38:36;;;;;;;3.55;2.00;;;;;;;;;;5066224;28;20052;-71
2021/06/11 06:41:02;;;;;;;4.05;3.03;;;;;;;;;;5067271;28;20044;-70
2021/06/11 06:43:29;;;;;;;4.10;3.00;;;;;;;;;;5067075;28;20056;-70
2021/06/11 06:45:56;;;;;;;5.63;2.72;;;;;;;;;;5057942;28;20029;-71
2021/06/11 06:48:22;;;;;;;6.03;2.33;;;;;;;;;;5068407;28;20076;-71
2021/06/11 06:50:48;;;;;;;9.05;4.60;;;;;;;;;;5068929;28;20045;-71
2021/06/11 06:53:18;;;;;;;7.38;6.78;;;;;;;;;;5066781;28;20060;-71
2021/06/11 06:55:44;;;;;;;8.50;4.95;;;;;;;;;;5068100;28;20040;-70
2021/06/11 06:58:10;;;;;;;4.45;4.03;;;;;;;;;;5067409;28;20503;-70
2021/06/11 07:00:36;;;;;;;5.20;2.85;;;;;;;;;;5067578;28;20056;-71
2021/06/11 07:03:03;;;;;;;3.65;2.70;;;;;;;;;;5066808;28;20032;-70
2021/06/11 07:05:29;;;;;;;5.82;3.03;;;;;;;;;;5067874;28;20135;-69
2021/06/11 07:07:55;;;;;;;6.00;3.10;;;;;;;;;;5067144;28;20201;-70
2021/06/11 07:10:22;;;;;;;5.85;3.25;;;;;;;;;;5065262;28;20048;-70
2021/06/11 07:12:48;;;;;;;4.45;2.75;;;;;;;;;;5063808;28;20036;-70
2021/06/11 07:15:14;;;;;;;4.57;2.92;;;;;;;;;;5064607;28;20530;-70
2021/06/11 07:17:41;;;;;;;5.28;2.80;;;;;;;;;;5056280;28;20044;-70
2021/06/11 07:20:08;;;;;;;4.22;2.35;;;;;;;;;;5063465;28;20044;-71
2021/06/11 07:22:34;;;;;;;7.07;2.50;;;;;;;;;;5067534;28;20096;-71
2021/06/11 07:25:05;;;;;;;5.07;2.85;;;;;;;;;;5079953;28;20040;-70
2021/06/11 07:27:32;;;;;;;2.80;2.60;;;;;;;;;;5084860;28;20522;-71
2021/06/11 07:30:04;;;;;;;6.93;2.47;;;;;;;;;;5067180;28;20044;-71
2021/06/11 07:32:30;;;;;;;5.00;2.95;;;;;;;;;;5068789;28;20403;-70
2021/06/11 07:34:56;;;;;;;5.00;2.03;;;;;;;;;;5066469;28;20750;-70
2021/06/11 07:37:23;;;;;;;2.70;2.50;;;;;;;;;;5082374;28;20088;-70
2021/06/11 07:39:49;;;;;;;3.88;3.15;;;;;;;;;;5088642;28;20044;-71
2021/06/11 07:42:16;;;;;;;5.78;2.20;;;;;;;;;;5081252;28;20629;-71
2021/06/11 07:44:42;;;;;;;2.55;2.20;;;;;;;;;;5068243;28;20067;-71
2021/06/11 07:47:09;;;;;;;5.57;2.58;;;;;;;;;;5066437;28;20052;-70
2021/06/11 07:49:36;;;;;;;3.40;2.78;;;;;;;;;;5065797;28;20074;-69
2021/06/11 07:52:02;;;;;;;4.45;2.55;;;;;;;;;;5047846;28;20148;-69
2021/06/11 07:54:28;;;;;;;3.00;2.78;;;;;;;;;;5066523;28;20033;-72
2021/06/11 07:56:55;;;;;;;5.78;3.08;;;;;;;;;;5067052;28;20091;-71
2021/06/11 07:59:21;;;;;;;5.53;2.58;;;;;;;;;;5067410;28;20137;-71
2021/06/11 08:01:47;;;;;;;4.90;2.50;;;;;;;;;;5066250;28;20488;-71
2021/06/11 08:04:13;;;;;;;4.90;3.03;;;;;;;;;;5066734;28;20119;-70
2021/06/11 08:06:40;;;;;;;3.55;2.60;;;;;;;;;;5064889;28;20064;-71
2021/06/11 08:09:06;;;;;;;3.83;2.83;;;;;;;;;;5066768;28;20105;-70
2021/06/11 08:11:32;;;;;;;5.82;2.47;;;;;;;;;;5068076;28;20041;-70
2021/06/11 08:13:58;;;;;;;5.13;3.05;;;;;;;;;;5069897;28;20052;-70
2021/06/11 08:16:25;;;;;;;4.07;2.97;;;;;;;;;;5067528;28;20048;-71
2021/06/11 08:18:54;;;;;;;4.35;3.10;;;;;;;;;;5066526;28;20064;-70
2021/06/11 08:21:21;;;;;;;5.10;2.58;;;;;;;;;;5067222;28;20056;-71
2021/06/11 08:23:47;;;;;;;7.10;3.65;;;;;;;;;;5066188;28;20048;-71
2021/06/11 08:26:13;;;;;;;3.30;2.92;;;;;;;;;;5065510;28;20044;-71
2021/06/11 08:28:39;;;;;;;4.95;3.53;;;;;;;;;;5066555;28;20044;-71
2021/06/11 08:31:06;;;;;;;4.85;2.95;;;;;;;;;;5063798;28;20040;-70
2021/06/11 08:33:32;;;;;;;4.60;3.17;;;;;;;;;;5067010;28;20037;-71
2021/06/11 08:35:58;;;;;;;6.90;3.28;;;;;;;;;;5066308;28;20194;-71
2021/06/11 08:38:24;;;;;;;3.25;2.60;;;;;;;;;;5067262;28;20574;-71
2021/06/11 08:40:51;;;;;;;2.97;2.78;;;;;;;;;;5067277;28;20044;-71
2021/06/11 08:43:18;;;;;;;2.75;2.35;;;;;;;;;;5066351;28;20041;-71
2021/06/11 08:45:44;;;;;;;4.68;2.95;;;;;;;;;;5066643;28;20055;-71
2021/06/11 08:48:10;;;;;;;4.65;3.45;;;;;;;;;;5068184;28;20563;-72
2021/06/11 08:50:36;;;;;;;3.33;2.90;;;;;;;;;;5071742;28;20443;-71
2021/06/11 08:53:04;;;;;;;7.03;3.35;;;;;;;;;;5070118;28;20072;-71
2021/06/11 08:55:30;;;;;;;7.00;3.58;;;;;;;;;;5071034;28;20079;-71
2021/06/11 08:57:56;;;;;;;2.78;2.33;;;;;;;;;;5070641;28;20124;-72
2021/06/11 09:00:22;;;;;;;5.57;2.65;;;;;;;;;;5071230;28;20032;-71
2021/06/11 09:03:09;;;;;;;11.13;3.70;;;;;;;;;;5070672;28;20052;-71
2021/06/11 09:05:35;;;;;;;3.35;2.50;;;;;;;;;;5071767;28;20510;-70
2021/06/11 09:08:15;;;;;;;5.53;3.30;;;;;;;;;;5070629;28;20049;-71
2021/06/11 09:10:43;;;;;;;3.10;2.63;;;;;;;;;;5071549;28;20086;-71
2021/06/11 09:13:09;;;;;;;9.85;3.75;;;;;;;;;;5077351;28;20763;-70
2021/06/11 09:15:35;;;;;;;4.60;2.90;;;;;;;;;;5091940;28;20071;-70
2021/06/11 09:18:02;;;;;;;3.92;3.40;;;;;;;;;;5075977;28;20052;-71
2021/06/11 09:20:34;;;;;;;4.47;4.10;;;;;;;;;;5070760;28;20103;-70
2021/06/11 09:23:00;;;;;;;2.67;2.47;;;;;;;;;;5070260;28;20088;-70
2021/06/11 09:25:28;;;;;;;5.15;3.63;;;;;;;;;;5070641;28;20051;-69
2021/06/11 09:27:59;;;;;;;7.28;2.55;;;;;;;;;;5070031;28;20529;-70
2021/06/11 09:30:29;;;;;;;3.30;3.00;;;;;;;;;;5070096;28;20052;-70
2021/06/11 09:32:56;;;;;;;4.75;3.67;;;;;;;;;;5069123;28;20403;-71
2021/06/11 09:35:42;;;;;;;4.25;3.60;;;;;;;;;;5070828;28;20045;-69
2021/06/11 09:38:12;;;;;;;7.68;3.85;;;;;;;;;;5069790;28;20170;-70
2021/06/11 09:40:38;;;;;;;5.90;3.33;;;;;;;;;;5069491;28;20064;-70
2021/06/11 09:43:04;;;;;;;6.50;3.83;;;;;;;;;;5069896;28;20112;-70
2021/06/11 09:45:31;;;;;;;4.43;3.80;;;;;;;;;;5070511;28;20173;-70
2021/06/11 09:47:57;;;;;;;6.80;4.63;;;;;;;;;;5069477;28;20095;-67
2021/06/11 09:50:34;;;;;;;4.13;3.72;;;;;;;;;;5070716;28;20040;-70
2021/06/11 09:53:02;;;;;;;5.10;3.33;;;;;;;;;;5068825;28;20070;-70
2021/06/11 09:55:46;;;;;;;9.55;3.03;;;;;;;;;;5069871;28;20441;-69
2021/06/11 09:58:13;;;;;;;;;;;;;;;;;;5064060;28;20057;-69
2021/06/11 10:00:41;;;;;;;4.03;2.90;;;;;;;;;;5061060;28;19924;-69
2021/06/11 10:03:24;;;;;;;4.53;3.20;;;;;;;;;;5046757;28;20093;-69
2021/06/11 10:05:50;;;;;;;7.00;3.25;;;;;;;;;;5069404;28;20285;-69
2021/06/11 10:08:17;;;;;;;3.95;2.88;;;;;;;;;;5068177;28;20040;-69
2021/06/11 10:10:44;;;;;;;5.43;3.90;;;;;;;;;;5069969;28;20040;-68
2021/06/11 10:13:11;;;;;;;4.15;3.35;;;;;;;;;;5067274;28;20057;-68
2021/06/11 10:15:37;;;;;;;5.13;3.58;;;;;;;;;;5069989;28;20037;-69
2021/06/11 10:18:04;;;;;;;4.43;3.70;;;;;;;;;;5067673;28;20044;-69
2021/06/11 10:20:30;;;;;;;3.90;3.50;;;;;;;;;;5068821;28;20041;-69
2021/06/11 10:22:56;;;;;;;3.30;3.00;;;;;;;;;;5067321;28;20396;-69
2021/06/11 10:25:24;;;;;;;7.05;3.50;;;;;;;;;;5069401;28;20053;-69
2021/06/11 10:27:50;;;;;;;7.00;4.20;;;;;;;;;;5069864;28;20523;-69
2021/06/11 10:30:17;;;;;;;3.92;3.58;;;;;;;;;;5068779;28;20052;-70
2021/06/11 10:32:45;;;;;;;3.72;3.20;;;;;;;;;;5066594;28;20049;-70
2021/06/11 10:35:12;;;;;;;3.65;3.25;;;;;;;;;;5068754;28;20082;-70
2021/06/11 10:37:39;;;;;;;3.80;3.20;;;;;;;;;;5070384;28;20097;-70
2021/06/11 10:40:25;;;;;;;5.65;3.40;;;;;;;;;;5068788;28;20140;-69
2021/06/11 10:42:52;;;;;;;33.45;5.72;;;;;;;;;;5069495;28;20124;-69
2021/06/11 10:45:38;;;;;;;3.88;3.13;;;;;;;;;;5069759;28;20448;-69
2021/06/11 10:48:04;;;;;;;5.85;3.53;;;;;;;;;;5068936;28;20056;-69
2021/06/11 10:50:34;;;;;;;6.47;3.80;;;;;;;;;;5069755;28;20418;-69
2021/06/11 10:53:31;;;;;;;3.95;3.55;;;;;;;;;;5068608;28;20128;-69
2021/06/11 10:56:19;;;;;;;4.25;3.00;;;;;;;;;;5069315;28;20135;-69
2021/06/11 10:58:46;;;;;;;3.80;3.08;;;;;;;;;;5070173;28;20045;-69
2021/06/11 11:01:21;;;;;;;4.40;3.30;;;;;;;;;;5065200;28;20061;-69
2021/06/11 11:03:47;;;;;;;3.53;3.28;;;;;;;;;;5069118;28;20045;-69
2021/06/11 11:06:33;;;;;;;7.05;3.33;;;;;;;;;;5068479;28;20105;-69
2021/06/11 11:09:03;;;;;;;4.40;2.63;;;;;;;;;;5068993;28;20048;-69
2021/06/11 11:11:31;;;;;;;4.47;4.07;;;;;;;;;;5069470;28;20423;-69
2021/06/11 11:13:57;;;;;;;6.22;2.85;;;;;;;;;;5083251;28;20633;-70
2021/06/11 11:16:24;;;;;;;3.30;3.00;;;;;;;;;;5089528;28;20486;-69
2021/06/11 11:18:50;;;;;;;3.63;3.28;;;;;;;;;;5089430;28;20051;-69
2021/06/11 11:21:29;;;;;;;3.33;3.08;;;;;;;;;;5089082;28;20047;-69
2021/06/11 11:23:57;;;;;;;5.47;3.58;;;;;;;;;;5088763;28;20131;-69
2021/06/11 11:26:37;;;;;;;3.50;3.20;;;;;;;;;;5088979;28;20043;-69
2021/06/11 11:29:04;;;;;;;5.35;4.50;;;;;;;;;;5077230;28;20045;-70
2021/06/11 11:31:30;;;;;;;3.67;3.38;;;;;;;;;;5065429;28;20045;-70
2021/06/11 11:33:56;;;;;;;5.63;3.95;;;;;;;;;;5066868;28;20092;-69
2021/06/11 11:36:23;;;;;;;4.72;3.30;;;;;;;;;;5066159;28;20070;-69
2021/06/11 11:38:49;;;;;;;5.65;3.50;;;;;;;;;;5060570;28;20049;-69
2021/06/11 11:41:15;;;;;;;4.57;4.03;;;;;;;;;;5067132;28;20165;-69
2021/06/11 11:43:41;;;;;;;5.18;3.38;;;;;;;;;;5067673;28;20414;-71
2021/06/11 11:46:07;;;;;;;5.97;4.10;;;;;;;;;;5067778;28;20048;-69
2021/06/11 11:48:33;;;;;;;4.70;4.05;;;;;;;;;;5065217;28;20139;-69
2021/06/11 11:50:59;;;;;;;5.20;3.42;;;;;;;;;;5066876;28;20048;-69
2021/06/11 11:53:26;;;;;;;4.45;3.90;;;;;;;;;;5066807;28;20521;-69
2021/06/11 11:55:52;;;;;;;3.53;3.22;;;;;;;;;;5046904;28;20438;-69
2021/06/11 11:58:23;;;;;;;6.80;3.97;;;;;;;;;;5067533;28;20125;-69
2021/06/11 12:00:49;;;;;;;4.22;3.08;;;;;;;;;;5066216;28;20075;-68
2021/06/11 12:03:15;;;;;;;3.25;2.95;;;;;;;;;;5065734;28;20040;-68
2021/06/11 12:05:41;;;;;;;5.72;2.85;;;;;;;;;;5061737;28;20056;-69
2021/06/11 12:08:07;;;;;;;4.68;3.20;;;;;;;;;;5065051;28;20139;-69
2021/06/11 12:10:33;;;;;;;4.93;3.35;;;;;;;;;;5068171;28;20037;-69
2021/06/11 12:12:59;;;;;;;5.38;3.65;;;;;;;;;;5065522;28;20494;-69
2021/06/11 12:15:25;;;;;;;4.15;3.30;;;;;;;;;;5067949;28;20384;-69
2021/06/11 12:17:51;;;;;;;3.90;3.03;;;;;;;;;;5067129;28;20060;-69
2021/06/11 12:20:18;;;;;;;4.05;3.70;;;;;;;;;;5067312;28;20041;-69
2021/06/11 12:22:44;;;;;;;4.78;3.25;;;;;;;;;;5066386;28;20067;-68
2021/06/11 12:25:10;;;;;;;5.05;3.72;;;;;;;;;;5067174;28;20117;-68
2021/06/11 12:27:36;;;;;;;6.85;3.45;;;;;;;;;;5068199;28;20049;-69
2021/06/11 12:30:03;;;;;;;6.55;4.03;;;;;;;;;;5066088;28;20128;-69
2021/06/11 12:32:29;;;;;;;3.60;3.10;;;;;;;;;;5066873;28;20052;-69
2021/06/11 12:34:55;;;;;;;4.75;3.55;;;;;;;;;;5066197;28;20048;-69
2021/06/11 12:37:21;;;;;;;4.60;4.20;;;;;;;;;;5066654;28;20079;-69
2021/06/11 12:39:50;;;;;;;5.35;3.85;;;;;;;;;;5067299;28;20581;-68
2021/06/11 12:42:19;;;;;;;4.25;3.78;;;;;;;;;;5067113;28;20061;-69
2021/06/11 12:44:46;;;;;;;4.78;4.38;;;;;;;;;;5065484;28;20052;-69
2021/06/11 12:47:12;;;;;;;12.02;5.20;;;;;;;;;;5065665;28;20060;-68
2021/06/11 12:49:39;;;;;;;4.70;4.20;;;;;;;;;;5067173;28;20128;-67
2021/06/11 12:52:06;;;;;;;5.03;4.28;;;;;;;;;;5066696;28;20526;-68
2021/06/11 12:54:32;;;;;;;6.40;3.55;;;;;;;;;;5067334;28;20101;-68
2021/06/11 12:56:58;;;;;;;4.93;3.47;;;;;;;;;;5066638;28;20088;-67
2021/06/11 12:59:24;;;;;;;5.85;4.28;;;;;;;;;;5067682;28;20056;-68
2021/06/11 13:01:50;;;;;;;3.75;3.35;;;;;;;;;;5066977;28;20052;-68
2021/06/11 13:04:16;;;;;;;3.75;3.40;;;;;;;;;;5067023;28;20059;-68
2021/06/11 13:06:43;;;;;;;7.13;4.78;;;;;;;;;;5067702;28;20130;-68
2021/06/11 13:09:09;;;;;;;4.40;3.97;;;;;;;;;;5066794;28;20051;-68
2021/06/11 13:11:39;;;;;;;5.63;3.83;;;;;;;;;;5067389;28;20052;-68
2021/06/11 13:14:06;;;;;;;8.00;4.50;;;;;;;;;;5081603;28;20063;-68
2021/06/11 13:16:32;;;;;;;9.40;4.13;;;;;;;;;;5087106;28;20040;-68
2021/06/11 13:18:58;;;;;;;4.63;4.22;;;;;;;;;;5086542;28;20090;-68
2021/06/11 13:21:24;;;;;;;5.65;4.75;;;;;;;;;;5087051;28;20142;-68
2021/06/11 13:23:50;;;;;;;7.28;3.88;;;;;;;;;;5066551;28;20534;-68
2021/06/11 13:26:16;;;;;;;5.88;4.53;;;;;;;;;;5058333;28;20040;-68
2021/06/11 13:28:42;;;;;;;5.82;5.20;;;;;;;;;;5064043;28;20049;-68
2021/06/11 13:31:09;;;;;;;8.82;6.65;;;;;;;;;;5069373;28;20806;-68
2021/06/11 13:33:35;;;;;;;14.40;5.70;;;;;;;;;;5066821;28;20052;-69
2021/06/11 13:36:02;;;;;;;11.18;5.38;;;;;;;;;;5069746;28;20049;-68
2021/06/11 13:38:30;;;;;;;5.60;5.03;;;;;;;;;;5070828;28;20045;-69
2021/06/11 13:40:56;;;;;;;4.85;4.18;;;;;;;;;;5070569;28;20055;-68
2021/06/11 13:43:22;;;;;;;7.53;6.72;;;;;;;;;;5071173;28;20562;-69
2021/06/11 13:45:48;;;;;;;8.18;5.45;;;;;;;;;;5080656;28;20379;-69
2021/06/11 13:48:14;;;;;;;6.35;5.22;;;;;;;;;;5090188;28;20108;-69
2021/06/11 13:50:41;;;;;;;4.88;4.38;;;;;;;;;;5091393;28;20464;-69
2021/06/11 13:53:08;;;;;;;5.53;5.03;;;;;;;;;;5084814;28;20060;-69
2021/06/11 13:55:34;;;;;;;5.20;4.80;;;;;;;;;;5070966;28;20083;-69
2021/06/11 13:58:01;;;;;;;4.63;4.20;;;;;;;;;;5068940;28;20133;-69
2021/06/11 14:00:27;;;;;;;4.68;4.28;;;;;;;;;;5070526;28;20182;-69
2021/06/11 14:02:54;;;;;;;8.57;5.45;;;;;;;;;;5069738;28;20045;-69
2021/06/11 14:05:20;;;;;;;6.43;5.20;;;;;;;;;;5052341;28;20582;-69
2021/06/11 14:07:48;;;;;;;5.85;4.50;;;;;;;;;;5070498;28;20048;-69
2021/06/11 14:10:15;;;;;;;5.68;5.15;;;;;;;;;;5069982;28;20171;-69
2021/06/11 14:12:41;;;;;;;9.60;4.90;;;;;;;;;;5072728;28;20087;-69
2021/06/11 14:15:07;;;;;;;7.32;4.72;;;;;;;;;;5088821;28;20063;-68
2021/06/11 14:17:34;;;;;;;7.50;5.63;;;;;;;;;;5081942;28;20136;-69
2021/06/11 14:20:00;;;;;;;6.13;5.10;;;;;;;;;;5065521;28;20102;-69
2021/06/11 14:22:26;;;;;;;6.57;5.63;;;;;;;;;;5067927;28;20052;-68
2021/06/11 14:24:52;;;;;;;5.97;5.35;;;;;;;;;;5067530;28;20063;-69
2021/06/11 14:27:19;;;;;;;5.88;5.15;;;;;;;;;;5075985;28;20044;-74
2021/06/11 14:29:46;;;;;;;5.25;4.65;;;;;;;;;;5079998;28;20045;-69
2021/06/11 14:32:13;;;;;;;6.78;6.03;;;;;;;;;;5071711;28;20057;-69
2021/06/11 14:34:39;;;;;;;6.00;5.00;;;;;;;;;;5068599;28;20070;-68
2021/06/11 14:37:05;;;;;;;5.65;5.15;;;;;;;;;;5067549;28;20046;-68
2021/06/11 14:39:32;;;;;;;9.68;4.68;;;;;;;;;;5073842;28;20143;-67
2021/06/11 14:41:58;;;;;;;5.97;5.25;;;;;;;;;;5067780;28;20047;-69
2021/06/11 14:44:25;;;;;;;6.00;4.55;;;;;;;;;;5068432;28;20056;-69